sensor_id;sensor_type;location;lat;lon;timestamp;temperature;humidity
9033;DHT22;4551;53.164;8.210;2023-04-03T00:00:13;3.60;99.90
9033;DHT22;4551;53.164;8.210;2023-04-03T00:02:41;3.60;99.90
9033;DHT22;4551;53.164;8.210;2023-04-03T00:05:10;3.60;99.90
9033;DHT22;4551;53.164;8.210;2023-04-03T00:07:40;3.50;99.90
9033;DHT22;4551;53.164;8.210;2023-04-03T00:10:11;3.50;99.90
9033;DHT22;4551;53.164;8.210;2023-04-03T00:12:40;3.50;99.90
9033;DHT22;4551;53.164;8.210;2023-04-03T00:15:08;3.50;99.90
9033;DHT22;4551;53.164;8.210;2023-04-03T00:17:36;3.40;99.90
9033;DHT22;4551;53.164;8.210;2023-04-03T00:20:05;3.40;99.90
9033;DHT22;4551;53.164;8.210;2023-04-03T00:22:33;3.40;99.90
9033;DHT22;4551;53.164;8.210;2023-04-03T00:25:01;3.40;99.90
9033;DHT22;4551;53.164;8.210;2023-04-03T00:27:33;3.40;99.90
9033;DHT22;4551;53.164;8.210;2023-04-03T00:30:03;3.30;99.90
9033;DHT22;4551;53.164;8.210;2023-04-03T00:32:34;3.30;99.90
9033;DHT22;4551;53.164;8.210;2023-04-03T00:35:02;3.30;99.90
9033;DHT22;4551;53.164;8.210;2023-04-03T00:37:30;3.30;99.90
9033;DHT22;4551;53.164;8.210;2023-04-03T00:39:58;3.30;99.90
9033;DHT22;4551;53.164;8.210;2023-04-03T00:42:26;3.30;99.90
9033;DHT22;4551;53.164;8.210;2023-04-03T00:47:42;3.20;99.90
9033;DHT22;4551;53.164;8.210;2023-04-03T00:50:11;3.20;99.90
9033;DHT22;4551;53.164;8.210;2023-04-03T00:52:39;3.10;99.90
9033;DHT22;4551;53.164;8.210;2023-04-03T00:55:15;3.10;99.90
9033;DHT22;4551;53.164;8.210;2023-04-03T00:57:44;3.10;99.90
9033;DHT22;4551;53.164;8.210;2023-04-03T01:00:13;3.00;99.90
9033;DHT22;4551;53.164;8.210;2023-04-03T01:02:45;3.00;99.90
9033;DHT22;4551;53.164;8.210;2023-04-03T01:05:15;3.00;99.90
9033;DHT22;4551;53.164;8.210;2023-04-03T01:07:44;3.00;99.90
9033;DHT22;4551;53.164;8.210;2023-04-03T01:10:13;3.00;99.90
9033;DHT22;4551;53.164;8.210;2023-04-03T01:12:42;2.90;99.90
9033;DHT22;4551;53.164;8.210;2023-04-03T01:15:15;2.90;99.90
9033;DHT22;4551;53.164;8.210;2023-04-03T01:17:45;2.90;99.90
9033;DHT22;4551;53.164;8.210;2023-04-03T01:22:56;2.80;99.90
9033;DHT22;4551;53.164;8.210;2023-04-03T01:25:27;2.80;99.90
9033;DHT22;4551;53.164;8.210;2023-04-03T01:27:55;2.80;99.90
9033;DHT22;4551;53.164;8.210;2023-04-03T01:30:24;2.70;99.90
9033;DHT22;4551;53.164;8.210;2023-04-03T01:32:55;2.80;99.90
9033;DHT22;4551;53.164;8.210;2023-04-03T01:35:23;2.70;99.90
9033;DHT22;4551;53.164;8.210;2023-04-03T01:37:51;2.10;99.90
9033;DHT22;4551;53.164;8.210;2023-04-03T01:40:19;2.70;99.90
9033;DHT22;4551;53.164;8.210;2023-04-03T01:42:47;2.70;99.90
9033;DHT22;4551;53.164;8.210;2023-04-03T01:45:15;2.70;99.90
9033;DHT22;4551;53.164;8.210;2023-04-03T01:47:44;2.60;99.90
9033;DHT22;4551;53.164;8.210;2023-04-03T01:50:13;2.60;99.90
9033;DHT22;4551;53.164;8.210;2023-04-03T01:52:41;2.60;99.90
9033;DHT22;4551;53.164;8.210;2023-04-03T01:55:09;2.60;99.90
9033;DHT22;4551;53.164;8.210;2023-04-03T01:57:37;2.50;99.90
9033;DHT22;4551;53.164;8.210;2023-04-03T02:00:06;2.50;99.90
9033;DHT22;4551;53.164;8.210;2023-04-03T02:02:34;2.50;99.90
9033;DHT22;4551;53.164;8.210;2023-04-03T02:05:02;2.50;99.90
9033;DHT22;4551;53.164;8.210;2023-04-03T02:07:31;2.40;99.90
9033;DHT22;4551;53.164;8.210;2023-04-03T02:09:59;2.40;99.90
9033;DHT22;4551;53.164;8.210;2023-04-03T02:12:28;2.40;99.90
9033;DHT22;4551;53.164;8.210;2023-04-03T02:14:56;2.40;99.90
9033;DHT22;4551;53.164;8.210;2023-04-03T02:17:24;2.40;99.90
9033;DHT22;4551;53.164;8.210;2023-04-03T02:19:52;2.40;99.90
9033;DHT22;4551;53.164;8.210;2023-04-03T02:22:20;2.30;99.90
9033;DHT22;4551;53.164;8.210;2023-04-03T02:24:49;2.40;99.90
9033;DHT22;4551;53.164;8.210;2023-04-03T02:27:18;2.40;99.90
9033;DHT22;4551;53.164;8.210;2023-04-03T02:29:46;2.20;99.90
9033;DHT22;4551;53.164;8.210;2023-04-03T02:32:14;2.30;99.90
9033;DHT22;4551;53.164;8.210;2023-04-03T02:34:42;2.30;99.90
9033;DHT22;4551;53.164;8.210;2023-04-03T02:37:10;2.30;99.90
9033;DHT22;4551;53.164;8.210;2023-04-03T02:39:38;2.20;99.90
9033;DHT22;4551;53.164;8.210;2023-04-03T02:42:07;2.30;99.90
9033;DHT22;4551;53.164;8.210;2023-04-03T02:44:38;2.20;99.90
9033;DHT22;4551;53.164;8.210;2023-04-03T02:47:06;2.20;99.90
9033;DHT22;4551;53.164;8.210;2023-04-03T02:49:34;2.10;99.90
9033;DHT22;4551;53.164;8.210;2023-04-03T02:52:02;2.10;99.90
9033;DHT22;4551;53.164;8.210;2023-04-03T02:54:31;2.10;99.90
9033;DHT22;4551;53.164;8.210;2023-04-03T02:56:59;2.10;99.90
9033;DHT22;4551;53.164;8.210;2023-04-03T02:59:28;2.10;99.90
9033;DHT22;4551;53.164;8.210;2023-04-03T03:01:56;2.00;99.90
9033;DHT22;4551;53.164;8.210;2023-04-03T03:04:24;2.00;99.90
9033;DHT22;4551;53.164;8.210;2023-04-03T03:06:52;2.00;99.90
9033;DHT22;4551;53.164;8.210;2023-04-03T03:09:21;2.00;99.90
9033;DHT22;4551;53.164;8.210;2023-04-03T03:11:49;2.00;99.90
9033;DHT22;4551;53.164;8.210;2023-04-03T03:14:17;1.90;99.90
9033;DHT22;4551;53.164;8.210;2023-04-03T03:16:47;1.90;99.90
9033;DHT22;4551;53.164;8.210;2023-04-03T03:19:18;1.90;99.90
9033;DHT22;4551;53.164;8.210;2023-04-03T03:21:46;1.90;99.90
9033;DHT22;4551;53.164;8.210;2023-04-03T03:24:14;1.90;99.90
9033;DHT22;4551;53.164;8.210;2023-04-03T03:26:42;1.80;99.90
9033;DHT22;4551;53.164;8.210;2023-04-03T03:29:11;1.80;99.90
9033;DHT22;4551;53.164;8.210;2023-04-03T03:31:39;1.80;99.90
9033;DHT22;4551;53.164;8.210;2023-04-03T03:34:08;1.80;99.90
9033;DHT22;4551;53.164;8.210;2023-04-03T03:36:36;1.70;99.90
9033;DHT22;4551;53.164;8.210;2023-04-03T03:39:06;1.70;99.90
9033;DHT22;4551;53.164;8.210;2023-04-03T03:41:34;1.80;99.90
9033;DHT22;4551;53.164;8.210;2023-04-03T03:44:05;1.70;99.90
9033;DHT22;4551;53.164;8.210;2023-04-03T03:46:33;1.70;99.90
9033;DHT22;4551;53.164;8.210;2023-04-03T03:49:12;1.70;99.90
9033;DHT22;4551;53.164;8.210;2023-04-03T03:51:40;1.70;99.90
9033;DHT22;4551;53.164;8.210;2023-04-03T03:54:09;1.70;99.90
9033;DHT22;4551;53.164;8.210;2023-04-03T03:56:37;1.70;99.90
9033;DHT22;4551;53.164;8.210;2023-04-03T03:59:05;1.60;99.90
9033;DHT22;4551;53.164;8.210;2023-04-03T04:01:33;1.60;99.90
9033;DHT22;4551;53.164;8.210;2023-04-03T04:04:01;1.60;99.90
9033;DHT22;4551;53.164;8.210;2023-04-03T04:06:31;1.60;99.90
9033;DHT22;4551;53.164;8.210;2023-04-03T04:08:59;1.60;99.90
9033;DHT22;4551;53.164;8.210;2023-04-03T04:11:29;1.60;99.90
9033;DHT22;4551;53.164;8.210;2023-04-03T04:13:57;1.50;99.90
9033;DHT22;4551;53.164;8.210;2023-04-03T04:16:25;1.50;99.90
9033;DHT22;4551;53.164;8.210;2023-04-03T04:18:53;1.50;99.90
9033;DHT22;4551;53.164;8.210;2023-04-03T04:21:21;1.50;99.90
9033;DHT22;4551;53.164;8.210;2023-04-03T04:23:55;1.50;99.90
9033;DHT22;4551;53.164;8.210;2023-04-03T04:26:23;1.50;99.90
9033;DHT22;4551;53.164;8.210;2023-04-03T04:28:51;1.50;99.90
9033;DHT22;4551;53.164;8.210;2023-04-03T04:31:19;1.40;99.90
9033;DHT22;4551;53.164;8.210;2023-04-03T04:33:47;1.40;99.90
9033;DHT22;4551;53.164;8.210;2023-04-03T04:36:15;1.40;99.90
9033;DHT22;4551;53.164;8.210;2023-04-03T04:38:43;1.40;99.90
9033;DHT22;4551;53.164;8.210;2023-04-03T04:41:14;1.40;99.90
9033;DHT22;4551;53.164;8.210;2023-04-03T04:43:42;1.40;99.90
9033;DHT22;4551;53.164;8.210;2023-04-03T04:46:10;1.30;99.90
9033;DHT22;4551;53.164;8.210;2023-04-03T04:48:41;1.30;99.90
9033;DHT22;4551;53.164;8.210;2023-04-03T04:51:09;1.30;99.90
9033;DHT22;4551;53.164;8.210;2023-04-03T04:53:37;1.30;99.90
9033;DHT22;4551;53.164;8.210;2023-04-03T04:56:06;1.30;99.90
9033;DHT22;4551;53.164;8.210;2023-04-03T04:58:35;1.30;99.90
9033;DHT22;4551;53.164;8.210;2023-04-03T05:01:04;1.30;99.90
9033;DHT22;4551;53.164;8.210;2023-04-03T05:03:32;1.30;99.90
9033;DHT22;4551;53.164;8.210;2023-04-03T05:06:00;1.30;99.90
9033;DHT22;4551;53.164;8.210;2023-04-03T05:08:28;1.30;99.90
9033;DHT22;4551;53.164;8.210;2023-04-03T05:10:56;1.20;99.90
9033;DHT22;4551;53.164;8.210;2023-04-03T05:13:24;1.20;99.90
9033;DHT22;4551;53.164;8.210;2023-04-03T05:15:53;1.20;99.90
9033;DHT22;4551;53.164;8.210;2023-04-03T05:18:21;1.20;99.90
9033;DHT22;4551;53.164;8.210;2023-04-03T05:20:49;1.20;99.90
9033;DHT22;4551;53.164;8.210;2023-04-03T05:23:18;1.20;99.90
9033;DHT22;4551;53.164;8.210;2023-04-03T05:25:49;1.20;99.90
9033;DHT22;4551;53.164;8.210;2023-04-03T05:28:17;1.20;99.90
9033;DHT22;4551;53.164;8.210;2023-04-03T05:30:53;1.20;99.90
9033;DHT22;4551;53.164;8.210;2023-04-03T05:33:22;1.30;99.90
9033;DHT22;4551;53.164;8.210;2023-04-03T05:35:50;1.20;99.90
9033;DHT22;4551;53.164;8.210;2023-04-03T05:38:19;1.30;99.90
9033;DHT22;4551;53.164;8.210;2023-04-03T05:40:47;1.30;99.90
9033;DHT22;4551;53.164;8.210;2023-04-03T05:43:15;1.30;99.90
9033;DHT22;4551;53.164;8.210;2023-04-03T05:45:43;1.20;99.90
9033;DHT22;4551;53.164;8.210;2023-04-03T05:48:14;1.30;99.90
9033;DHT22;4551;53.164;8.210;2023-04-03T05:50:43;1.30;99.90
9033;DHT22;4551;53.164;8.210;2023-04-03T05:53:12;1.30;99.90
9033;DHT22;4551;53.164;8.210;2023-04-03T05:55:43;1.40;99.90
9033;DHT22;4551;53.164;8.210;2023-04-03T05:58:12;1.40;99.90
9033;DHT22;4551;53.164;8.210;2023-04-03T06:00:40;1.40;99.90
9033;DHT22;4551;53.164;8.210;2023-04-03T06:03:08;1.40;99.90
9033;DHT22;4551;53.164;8.210;2023-04-03T06:05:39;1.50;99.90
9033;DHT22;4551;53.164;8.210;2023-04-03T06:08:10;1.50;99.90
9033;DHT22;4551;53.164;8.210;2023-04-03T06:10:39;1.50;99.90
9033;DHT22;4551;53.164;8.210;2023-04-03T06:13:07;1.60;99.90
9033;DHT22;4551;53.164;8.210;2023-04-03T06:15:35;1.60;99.90
9033;DHT22;4551;53.164;8.210;2023-04-03T06:18:03;1.60;99.90
9033;DHT22;4551;53.164;8.210;2023-04-03T06:20:33;1.70;99.90
9033;DHT22;4551;53.164;8.210;2023-04-03T06:23:03;1.70;99.90
9033;DHT22;4551;53.164;8.210;2023-04-03T06:25:37;1.70;99.90
9033;DHT22;4551;53.164;8.210;2023-04-03T06:28:05;1.80;99.90
9033;DHT22;4551;53.164;8.210;2023-04-03T06:30:36;1.80;99.90
9033;DHT22;4551;53.164;8.210;2023-04-03T06:33:04;1.90;99.90
9033;DHT22;4551;53.164;8.210;2023-04-03T06:35:33;1.90;99.90
9033;DHT22;4551;53.164;8.210;2023-04-03T06:38:03;2.00;99.90
9033;DHT22;4551;53.164;8.210;2023-04-03T06:40:36;2.00;99.90
9033;DHT22;4551;53.164;8.210;2023-04-03T06:43:04;2.10;99.90
9033;DHT22;4551;53.164;8.210;2023-04-03T06:45:32;2.20;99.90
9033;DHT22;4551;53.164;8.210;2023-04-03T06:48:03;2.20;99.90
9033;DHT22;4551;53.164;8.210;2023-04-03T06:50:32;2.20;99.90
9033;DHT22;4551;53.164;8.210;2023-04-03T06:53:00;2.20;99.90
9033;DHT22;4551;53.164;8.210;2023-04-03T06:55:32;2.30;99.90
9033;DHT22;4551;53.164;8.210;2023-04-03T06:57:59;2.30;99.90
9033;DHT22;4551;53.164;8.210;2023-04-03T07:00:28;2.40;99.90
9033;DHT22;4551;53.164;8.210;2023-04-03T07:02:56;2.40;99.90
9033;DHT22;4551;53.164;8.210;2023-04-03T07:05:25;2.40;99.90
9033;DHT22;4551;53.164;8.210;2023-04-03T07:07:53;2.50;99.90
9033;DHT22;4551;53.164;8.210;2023-04-03T07:10:21;2.50;99.90
9033;DHT22;4551;53.164;8.210;2023-04-03T07:12:51;2.50;99.90
9033;DHT22;4551;53.164;8.210;2023-04-03T07:15:19;2.60;99.90
9033;DHT22;4551;53.164;8.210;2023-04-03T07:17:47;2.60;99.90
9033;DHT22;4551;53.164;8.210;2023-04-03T07:20:15;2.60;99.90
9033;DHT22;4551;53.164;8.210;2023-04-03T07:22:43;2.70;99.90
9033;DHT22;4551;53.164;8.210;2023-04-03T07:25:11;2.70;99.90
9033;DHT22;4551;53.164;8.210;2023-04-03T07:27:40;2.80;99.90
9033;DHT22;4551;53.164;8.210;2023-04-03T07:30:10;2.80;99.90
9033;DHT22;4551;53.164;8.210;2023-04-03T07:32:38;2.90;99.90
9033;DHT22;4551;53.164;8.210;2023-04-03T07:35:06;2.90;99.90
9033;DHT22;4551;53.164;8.210;2023-04-03T07:37:34;2.90;99.90
9033;DHT22;4551;53.164;8.210;2023-04-03T07:40:02;3.00;99.90
9033;DHT22;4551;53.164;8.210;2023-04-03T07:42:31;3.00;99.90
9033;DHT22;4551;53.164;8.210;2023-04-03T07:44:59;3.10;99.90
9033;DHT22;4551;53.164;8.210;2023-04-03T07:47:28;3.10;99.90
9033;DHT22;4551;53.164;8.210;2023-04-03T07:49:56;3.20;99.90
9033;DHT22;4551;53.164;8.210;2023-04-03T07:52:24;3.20;99.90
9033;DHT22;4551;53.164;8.210;2023-04-03T07:54:53;3.20;99.90
9033;DHT22;4551;53.164;8.210;2023-04-03T07:57:21;3.30;99.90
9033;DHT22;4551;53.164;8.210;2023-04-03T07:59:49;3.30;99.90
9033;DHT22;4551;53.164;8.210;2023-04-03T08:02:19;3.40;99.90
9033;DHT22;4551;53.164;8.210;2023-04-03T08:04:49;3.40;99.90
9033;DHT22;4551;53.164;8.210;2023-04-03T08:07:17;3.40;99.90
9033;DHT22;4551;53.164;8.210;2023-04-03T08:09:45;3.50;99.90
9033;DHT22;4551;53.164;8.210;2023-04-03T08:12:13;3.50;99.90
9033;DHT22;4551;53.164;8.210;2023-04-03T08:14:41;3.50;99.90
9033;DHT22;4551;53.164;8.210;2023-04-03T08:17:09;3.60;99.90
9033;DHT22;4551;53.164;8.210;2023-04-03T08:19:38;3.60;99.90
9033;DHT22;4551;53.164;8.210;2023-04-03T08:22:07;3.70;99.90
9033;DHT22;4551;53.164;8.210;2023-04-03T08:24:35;3.70;99.90
9033;DHT22;4551;53.164;8.210;2023-04-03T08:27:08;3.80;99.90
9033;DHT22;4551;53.164;8.210;2023-04-03T08:29:36;3.80;99.90
9033;DHT22;4551;53.164;8.210;2023-04-03T08:32:04;3.90;99.90
9033;DHT22;4551;53.164;8.210;2023-04-03T08:34:34;3.90;99.90
9033;DHT22;4551;53.164;8.210;2023-04-03T08:37:03;4.00;99.90
9033;DHT22;4551;53.164;8.210;2023-04-03T08:39:33;4.00;99.90
9033;DHT22;4551;53.164;8.210;2023-04-03T08:42:02;4.00;99.90
9033;DHT22;4551;53.164;8.210;2023-04-03T08:44:37;4.10;99.90
9033;DHT22;4551;53.164;8.210;2023-04-03T08:47:11;4.10;99.90
9033;DHT22;4551;53.164;8.210;2023-04-03T08:49:46;4.20;99.90
9033;DHT22;4551;53.164;8.210;2023-04-03T08:52:18;4.30;99.90
9033;DHT22;4551;53.164;8.210;2023-04-03T08:54:49;4.30;99.90
9033;DHT22;4551;53.164;8.210;2023-04-03T08:57:20;4.40;99.90
9033;DHT22;4551;53.164;8.210;2023-04-03T08:59:52;4.40;99.90
9033;DHT22;4551;53.164;8.210;2023-04-03T09:02:24;4.50;99.90
9033;DHT22;4551;53.164;8.210;2023-04-03T09:04:55;4.50;99.90
9033;DHT22;4551;53.164;8.210;2023-04-03T09:07:25;4.60;99.90
9033;DHT22;4551;53.164;8.210;2023-04-03T09:10:00;4.60;99.90
9033;DHT22;4551;53.164;8.210;2023-04-03T09:12:32;4.70;99.90
9033;DHT22;4551;53.164;8.210;2023-04-03T09:15:02;4.70;99.90
9033;DHT22;4551;53.164;8.210;2023-04-03T09:17:40;4.80;99.90
9033;DHT22;4551;53.164;8.210;2023-04-03T09:20:11;4.80;99.90
9033;DHT22;4551;53.164;8.210;2023-04-03T09:22:45;4.90;99.90
9033;DHT22;4551;53.164;8.210;2023-04-03T09:25:20;4.90;99.90
9033;DHT22;4551;53.164;8.210;2023-04-03T09:27:49;5.00;99.90
9033;DHT22;4551;53.164;8.210;2023-04-03T09:30:19;5.00;99.90
9033;DHT22;4551;53.164;8.210;2023-04-03T09:32:48;5.10;99.90
9033;DHT22;4551;53.164;8.210;2023-04-03T09:35:21;5.10;99.90
9033;DHT22;4551;53.164;8.210;2023-04-03T09:38:20;5.20;99.90
9033;DHT22;4551;53.164;8.210;2023-04-03T09:40:50;5.20;99.90
9033;DHT22;4551;53.164;8.210;2023-04-03T09:43:25;5.30;99.90
9033;DHT22;4551;53.164;8.210;2023-04-03T09:45:53;5.30;99.90
9033;DHT22;4551;53.164;8.210;2023-04-03T09:48:22;5.40;99.90
9033;DHT22;4551;53.164;8.210;2023-04-03T09:50:54;5.40;99.90
9033;DHT22;4551;53.164;8.210;2023-04-03T09:53:32;5.50;99.90
9033;DHT22;4551;53.164;8.210;2023-04-03T09:56:04;5.50;99.90
9033;DHT22;4551;53.164;8.210;2023-04-03T09:58:40;5.60;99.90
9033;DHT22;4551;53.164;8.210;2023-04-03T10:01:24;5.60;99.90
9033;DHT22;4551;53.164;8.210;2023-04-03T10:04:06;5.60;99.90
9033;DHT22;4551;53.164;8.210;2023-04-03T10:06:35;5.70;99.90
9033;DHT22;4551;53.164;8.210;2023-04-03T10:09:04;5.70;99.90
9033;DHT22;4551;53.164;8.210;2023-04-03T10:11:36;5.80;99.90
9033;DHT22;4551;53.164;8.210;2023-04-03T10:14:04;5.90;99.90
9033;DHT22;4551;53.164;8.210;2023-04-03T10:16:35;5.90;99.90
9033;DHT22;4551;53.164;8.210;2023-04-03T10:19:20;5.90;99.90
9033;DHT22;4551;53.164;8.210;2023-04-03T10:21:53;6.00;99.90
9033;DHT22;4551;53.164;8.210;2023-04-03T10:24:23;6.20;99.90
9033;DHT22;4551;53.164;8.210;2023-04-03T10:26:55;6.20;99.90
9033;DHT22;4551;53.164;8.210;2023-04-03T10:29:31;6.30;99.90
9033;DHT22;4551;53.164;8.210;2023-04-03T10:32:03;6.30;99.90
9033;DHT22;4551;53.164;8.210;2023-04-03T10:34:40;6.40;99.90
9033;DHT22;4551;53.164;8.210;2023-04-03T10:37:13;6.50;99.90
9033;DHT22;4551;53.164;8.210;2023-04-03T10:39:46;6.50;99.90
9033;DHT22;4551;53.164;8.210;2023-04-03T10:42:19;6.50;99.90
9033;DHT22;4551;53.164;8.210;2023-04-03T10:44:52;6.60;99.90
9033;DHT22;4551;53.164;8.210;2023-04-03T10:47:24;6.70;99.90
9033;DHT22;4551;53.164;8.210;2023-04-03T10:50:00;6.70;99.90
9033;DHT22;4551;53.164;8.210;2023-04-03T10:52:30;7.00;99.90
9033;DHT22;4551;53.164;8.210;2023-04-03T10:55:02;8.10;99.90
9033;DHT22;4551;53.164;8.210;2023-04-03T10:57:35;7.00;99.90
9033;DHT22;4551;53.164;8.210;2023-04-03T11:00:04;7.10;99.90
9033;DHT22;4551;53.164;8.210;2023-04-03T11:02:36;7.10;99.90
9033;DHT22;4551;53.164;8.210;2023-04-03T11:05:06;7.20;99.90
9033;DHT22;4551;53.164;8.210;2023-04-03T11:07:37;6.40;99.90
9033;DHT22;4551;53.164;8.210;2023-04-03T11:10:09;7.30;99.90
9033;DHT22;4551;53.164;8.210;2023-04-03T11:12:43;7.30;99.90
9033;DHT22;4551;53.164;8.210;2023-04-03T11:15:15;7.40;99.90
9033;DHT22;4551;53.164;8.210;2023-04-03T11:17:45;7.40;99.90
9033;DHT22;4551;53.164;8.210;2023-04-03T11:20:17;7.50;99.90
9033;DHT22;4551;53.164;8.210;2023-04-03T11:22:47;7.50;99.90
9033;DHT22;4551;53.164;8.210;2023-04-03T11:25:18;7.50;99.90
9033;DHT22;4551;53.164;8.210;2023-04-03T11:27:54;7.60;99.90
9033;DHT22;4551;53.164;8.210;2023-04-03T11:30:23;7.70;99.90
9033;DHT22;4551;53.164;8.210;2023-04-03T11:33:05;7.80;99.90
9033;DHT22;4551;53.164;8.210;2023-04-03T11:35:35;7.90;99.90
9033;DHT22;4551;53.164;8.210;2023-04-03T11:38:04;8.00;99.90
9033;DHT22;4551;53.164;8.210;2023-04-03T11:40:36;8.10;99.90
9033;DHT22;4551;53.164;8.210;2023-04-03T11:43:07;8.10;99.90
9033;DHT22;4551;53.164;8.210;2023-04-03T11:45:50;8.30;99.90
9033;DHT22;4551;53.164;8.210;2023-04-03T11:51:30;8.50;99.90
9033;DHT22;4551;53.164;8.210;2023-04-03T11:57:04;8.60;99.90
9033;DHT22;4551;53.164;8.210;2023-04-03T11:59:51;8.80;99.90
9033;DHT22;4551;53.164;8.210;2023-04-03T12:02:35;8.90;99.90
9033;DHT22;4551;53.164;8.210;2023-04-03T12:05:26;9.00;99.90
9033;DHT22;4551;53.164;8.210;2023-04-03T12:10:41;9.10;99.90
9033;DHT22;4551;53.164;8.210;2023-04-03T12:13:13;9.20;99.90
9033;DHT22;4551;53.164;8.210;2023-04-03T12:15:52;9.30;99.90
9033;DHT22;4551;53.164;8.210;2023-04-03T12:21:20;9.40;99.90
9033;DHT22;4551;53.164;8.210;2023-04-03T12:23:56;9.60;99.90
9033;DHT22;4551;53.164;8.210;2023-04-03T12:26:24;9.70;99.90
9033;DHT22;4551;53.164;8.210;2023-04-03T12:29:14;9.90;99.90
9033;DHT22;4551;53.164;8.210;2023-04-03T12:31:48;9.90;99.90
9033;DHT22;4551;53.164;8.210;2023-04-03T12:34:23;9.90;99.90
9033;DHT22;4551;53.164;8.210;2023-04-03T12:36:57;10.00;99.90
9033;DHT22;4551;53.164;8.210;2023-04-03T12:39:41;10.10;99.90
9033;DHT22;4551;53.164;8.210;2023-04-03T12:47:51;10.40;99.90
9033;DHT22;4551;53.164;8.210;2023-04-03T12:50:22;10.60;99.90
9033;DHT22;4551;53.164;8.210;2023-04-03T12:53:01;10.70;99.90
9033;DHT22;4551;53.164;8.210;2023-04-03T12:55:30;10.80;99.90
9033;DHT22;4551;53.164;8.210;2023-04-03T12:58:12;11.10;99.90
9033;DHT22;4551;53.164;8.210;2023-04-03T13:00:41;11.40;99.90
9033;DHT22;4551;53.164;8.210;2023-04-03T13:03:19;11.60;99.90
9033;DHT22;4551;53.164;8.210;2023-04-03T13:05:48;11.80;99.90
9033;DHT22;4551;53.164;8.210;2023-04-03T13:08:16;12.10;99.90
9033;DHT22;4551;53.164;8.210;2023-04-03T13:10:51;12.30;99.90
9033;DHT22;4551;53.164;8.210;2023-04-03T13:13:21;12.50;99.90
9033;DHT22;4551;53.164;8.210;2023-04-03T13:15:49;12.70;99.90
9033;DHT22;4551;53.164;8.210;2023-04-03T13:18:23;12.90;99.90
9033;DHT22;4551;53.164;8.210;2023-04-03T13:20:52;13.20;99.90
9033;DHT22;4551;53.164;8.210;2023-04-03T13:23:20;13.20;99.90
9033;DHT22;4551;53.164;8.210;2023-04-03T13:25:50;13.30;99.90
9033;DHT22;4551;53.164;8.210;2023-04-03T13:28:19;13.40;99.90
9033;DHT22;4551;53.164;8.210;2023-04-03T13:30:54;13.50;99.90
9033;DHT22;4551;53.164;8.210;2023-04-03T13:33:25;13.70;99.90
9033;DHT22;4551;53.164;8.210;2023-04-03T13:35:54;14.40;99.90
9033;DHT22;4551;53.164;8.210;2023-04-03T13:38:24;14.30;99.90
9033;DHT22;4551;53.164;8.210;2023-04-03T13:40:53;14.60;99.90
9033;DHT22;4551;53.164;8.210;2023-04-03T13:43:23;14.80;99.90
9033;DHT22;4551;53.164;8.210;2023-04-03T13:45:56;15.00;99.90
9033;DHT22;4551;53.164;8.210;2023-04-03T13:48:26;15.10;99.90
9033;DHT22;4551;53.164;8.210;2023-04-03T13:50:57;15.30;99.90
9033;DHT22;4551;53.164;8.210;2023-04-03T13:53:25;15.50;99.90
9033;DHT22;4551;53.164;8.210;2023-04-03T13:55:55;15.40;99.90
9033;DHT22;4551;53.164;8.210;2023-04-03T13:58:25;15.40;99.90
9033;DHT22;4551;53.164;8.210;2023-04-03T14:00:58;15.90;99.90
9033;DHT22;4551;53.164;8.210;2023-04-03T14:03:31;16.10;99.90
9033;DHT22;4551;53.164;8.210;2023-04-03T14:05:59;15.90;99.90
9033;DHT22;4551;53.164;8.210;2023-04-03T14:08:34;16.70;99.90
9033;DHT22;4551;53.164;8.210;2023-04-03T14:11:11;16.00;99.90
9033;DHT22;4551;53.164;8.210;2023-04-03T14:13:41;16.10;99.90
9033;DHT22;4551;53.164;8.210;2023-04-03T14:16:12;15.90;99.70
9033;DHT22;4551;53.164;8.210;2023-04-03T14:18:43;15.80;99.50
9033;DHT22;4551;53.164;8.210;2023-04-03T14:21:13;16.00;99.90
9033;DHT22;4551;53.164;8.210;2023-04-03T14:23:45;16.30;99.90
9033;DHT22;4551;53.164;8.210;2023-04-03T14:26:16;16.60;99.90
9033;DHT22;4551;53.164;8.210;2023-04-03T14:28:48;16.80;99.80
9033;DHT22;4551;53.164;8.210;2023-04-03T14:31:16;16.60;99.20
9033;DHT22;4551;53.164;8.210;2023-04-03T14:33:47;16.40;99.20
9033;DHT22;4551;53.164;8.210;2023-04-03T14:36:15;16.50;99.30
9033;DHT22;4551;53.164;8.210;2023-04-03T14:38:45;16.60;99.90
9033;DHT22;4551;53.164;8.210;2023-04-03T14:41:13;16.70;99.70
9033;DHT22;4551;53.164;8.210;2023-04-03T14:43:43;16.80;99.40
9033;DHT22;4551;53.164;8.210;2023-04-03T14:46:13;16.60;99.20
9033;DHT22;4551;53.164;8.210;2023-04-03T14:48:43;16.20;98.50
9033;DHT22;4551;53.164;8.210;2023-04-03T14:51:14;15.80;98.20
9033;DHT22;4551;53.164;8.210;2023-04-03T14:53:42;15.40;98.30
9033;DHT22;4551;53.164;8.210;2023-04-03T14:56:14;15.10;98.40
9033;DHT22;4551;53.164;8.210;2023-04-03T14:58:49;14.90;98.70
9033;DHT22;4551;53.164;8.210;2023-04-03T15:01:19;15.00;99.60
9033;DHT22;4551;53.164;8.210;2023-04-03T15:03:47;15.20;99.40
9033;DHT22;4551;53.164;8.210;2023-04-03T15:06:17;15.00;98.90
9033;DHT22;4551;53.164;8.210;2023-04-03T15:08:46;15.20;99.10
9033;DHT22;4551;53.164;8.210;2023-04-03T15:11:14;15.20;99.00
9033;DHT22;4551;53.164;8.210;2023-04-03T15:13:42;15.40;99.40
9033;DHT22;4551;53.164;8.210;2023-04-03T15:16:12;15.50;99.30
9033;DHT22;4551;53.164;8.210;2023-04-03T15:18:44;15.70;99.20
9033;DHT22;4551;53.164;8.210;2023-04-03T15:21:14;15.80;99.40
9033;DHT22;4551;53.164;8.210;2023-04-03T15:23:43;15.90;99.90
9033;DHT22;4551;53.164;8.210;2023-04-03T15:26:11;16.00;99.20
9033;DHT22;4551;53.164;8.210;2023-04-03T15:28:40;15.60;98.90
9033;DHT22;4551;53.164;8.210;2023-04-03T15:31:08;15.60;99.40
9033;DHT22;4551;53.164;8.210;2023-04-03T15:33:36;15.50;98.70
9033;DHT22;4551;53.164;8.210;2023-04-03T15:36:05;15.70;99.90
9033;DHT22;4551;53.164;8.210;2023-04-03T15:38:49;16.00;99.90
9033;DHT22;4551;53.164;8.210;2023-04-03T15:41:17;16.00;99.10
9033;DHT22;4551;53.164;8.210;2023-04-03T15:43:47;16.10;99.90
9033;DHT22;4551;53.164;8.210;2023-04-03T15:46:15;16.10;99.30
9033;DHT22;4551;53.164;8.210;2023-04-03T15:48:43;16.20;99.30
9033;DHT22;4551;53.164;8.210;2023-04-03T15:51:12;16.20;99.70
9033;DHT22;4551;53.164;8.210;2023-04-03T15:53:40;16.20;99.80
9033;DHT22;4551;53.164;8.210;2023-04-03T15:56:10;16.50;99.90
9033;DHT22;4551;53.164;8.210;2023-04-03T15:58:38;16.70;99.90
9033;DHT22;4551;53.164;8.210;2023-04-03T16:01:08;16.70;99.90
9033;DHT22;4551;53.164;8.210;2023-04-03T16:03:36;16.80;99.90
9033;DHT22;4551;53.164;8.210;2023-04-03T16:06:05;16.80;99.90
9033;DHT22;4551;53.164;8.210;2023-04-03T16:08:33;16.80;99.90
9033;DHT22;4551;53.164;8.210;2023-04-03T16:11:03;16.80;99.90
9033;DHT22;4551;53.164;8.210;2023-04-03T16:13:33;16.70;99.90
9033;DHT22;4551;53.164;8.210;2023-04-03T16:16:02;16.70;99.90
9033;DHT22;4551;53.164;8.210;2023-04-03T16:18:30;16.50;99.90
9033;DHT22;4551;53.164;8.210;2023-04-03T16:20:58;16.60;99.90
9033;DHT22;4551;53.164;8.210;2023-04-03T16:23:26;16.60;99.90
9033;DHT22;4551;53.164;8.210;2023-04-03T16:25:54;16.50;99.90
9033;DHT22;4551;53.164;8.210;2023-04-03T16:28:22;16.50;99.90
9033;DHT22;4551;53.164;8.210;2023-04-03T16:30:51;16.50;99.90
9033;DHT22;4551;53.164;8.210;2023-04-03T16:33:20;16.30;99.90
9033;DHT22;4551;53.164;8.210;2023-04-03T16:35:48;16.30;99.90
9033;DHT22;4551;53.164;8.210;2023-04-03T16:38:17;16.10;99.90
9033;DHT22;4551;53.164;8.210;2023-04-03T16:40:45;15.90;99.90
9033;DHT22;4551;53.164;8.210;2023-04-03T16:43:15;15.40;99.90
9033;DHT22;4551;53.164;8.210;2023-04-03T16:45:43;15.50;99.90
9033;DHT22;4551;53.164;8.210;2023-04-03T16:48:12;15.40;99.90
9033;DHT22;4551;53.164;8.210;2023-04-03T16:50:41;15.40;99.90
9033;DHT22;4551;53.164;8.210;2023-04-03T16:53:09;14.90;99.90
9033;DHT22;4551;53.164;8.210;2023-04-03T16:55:37;14.80;99.90